createdAt,value
2018-07-21T00:01:20.195Z,18.00
2018-07-21T00:03:55.666Z,20.00
2018-07-21T00:06:33.678Z,20.00
2018-07-21T00:09:15.715Z,19.33
2018-07-21T00:11:46.445Z,19.00
2018-07-21T00:14:20.236Z,17.00
2018-07-21T00:16:51.257Z,18.00
2018-07-21T00:19:24.105Z,19.33
2018-07-21T00:21:59.508Z,20.00
2018-07-21T00:24:30.632Z,18.67
2018-07-21T00:27:05.183Z,19.00
2018-07-21T00:29:35.801Z,20.00
2018-07-21T00:32:06.902Z,18.33
2018-07-21T00:34:39.482Z,21.67
2018-07-21T00:37:11.984Z,20.33
2018-07-21T00:39:42.916Z,21.00
2018-07-21T00:42:16.376Z,19.00
2018-07-21T00:44:47.422Z,20.00
2018-07-21T00:47:20.784Z,21.67
2018-07-21T00:49:52.335Z,21.00
2018-07-21T00:52:22.775Z,19.33
2018-07-21T00:54:56.439Z,22.33
2018-07-21T00:57:28.688Z,22.00
2018-07-21T01:00:00.356Z,21.00
2018-07-21T01:02:31.346Z,17.67
2018-07-21T01:05:03.380Z,20.00
2018-07-21T01:07:36.420Z,23.00
2018-07-21T01:10:11.077Z,23.00
2018-07-21T01:12:44.939Z,23.00
2018-07-21T01:15:17.227Z,23.67
2018-07-21T01:17:50.839Z,22.33
2018-07-21T01:20:24.341Z,25.33
2018-07-21T01:22:56.964Z,23.00
2018-07-21T01:25:28.378Z,23.00
2018-07-21T01:28:00.980Z,22.67
2018-07-21T01:30:35.343Z,21.67
2018-07-21T01:33:06.410Z,24.00
2018-07-21T01:35:42.376Z,25.00
2018-07-21T01:38:14.937Z,22.00
2018-07-21T01:40:45.464Z,22.33
2018-07-21T01:43:15.613Z,23.67
2018-07-21T01:45:45.828Z,24.33
2018-07-21T01:48:16.512Z,24.67
2018-07-21T01:50:46.836Z,24.00
2018-07-21T01:53:17.574Z,26.33
2018-07-21T01:55:48.120Z,23.67
2018-07-21T01:58:18.316Z,23.33
2018-07-21T02:00:48.426Z,25.00
2018-07-21T02:03:19.025Z,28.00
2018-07-21T02:05:49.214Z,27.33
2018-07-21T02:08:19.511Z,29.67
2018-07-21T02:10:49.734Z,25.00
2018-07-21T02:13:20.043Z,25.67
2018-07-21T02:15:51.383Z,29.67
2018-07-21T02:18:21.572Z,27.00
2018-07-21T02:20:53.624Z,26.00
2018-07-21T02:23:24.280Z,26.67
2018-07-21T02:25:54.540Z,26.33
2018-07-21T02:28:26.336Z,25.67
2018-07-21T02:30:56.930Z,27.00
2018-07-21T02:33:27.217Z,26.00
2018-07-21T02:35:57.522Z,25.33
2018-07-21T02:38:29.243Z,28.33
2018-07-21T02:40:59.416Z,22.00
2018-07-21T02:43:30.537Z,21.00
2018-07-21T02:46:01.203Z,24.33
2018-07-21T02:48:32.073Z,26.67
2018-07-21T02:51:02.437Z,25.00
2018-07-21T02:53:33.183Z,26.00
2018-07-21T02:56:05.220Z,26.67
2018-07-21T02:58:35.382Z,29.00
2018-07-21T03:01:06.804Z,28.00
2018-07-21T03:03:37.032Z,27.67
2018-07-21T03:06:07.258Z,27.33
2018-07-21T03:08:38.256Z,29.67
2018-07-21T03:12:15.177Z,30.67
2018-07-21T03:15:24.793Z,28.00
2018-07-21T03:18:35.025Z,25.33
2018-07-21T03:21:42.927Z,29.33
2018-07-21T03:24:50.425Z,32.67
2018-07-21T03:27:59.885Z,29.00
2018-07-21T03:31:01.108Z,31.00
2018-07-21T03:34:11.461Z,30.67
2018-07-21T03:37:18.875Z,27.67
2018-07-21T03:40:29.057Z,31.33
2018-07-21T03:43:37.107Z,29.33
2018-07-21T03:49:09.519Z,30.67
2018-07-21T03:52:16.593Z,33.00
2018-07-21T03:55:24.031Z,31.00
2018-07-21T03:58:33.089Z,29.00
2018-07-21T04:01:40.891Z,29.67
2018-07-21T04:04:49.205Z,26.00
2018-07-21T04:07:56.572Z,29.00
2018-07-21T04:11:05.741Z,28.33
2018-07-21T04:14:13.933Z,32.33
2018-07-21T04:17:26.015Z,29.33
2018-07-21T04:20:32.611Z,25.67
2018-07-21T04:23:39.786Z,31.67
2018-07-21T04:26:46.831Z,30.00
2018-07-21T04:29:53.967Z,25.00
2018-07-21T04:33:03.256Z,30.67
2018-07-21T04:36:17.161Z,27.33
2018-07-21T04:39:24.624Z,25.33
2018-07-21T04:42:35.069Z,25.00
2018-07-21T04:45:42.358Z,26.33
2018-07-21T04:48:52.483Z,26.33
2018-07-21T04:52:00.464Z,26.33
2018-07-21T04:55:09.687Z,26.00
2018-07-21T04:58:19.749Z,22.67
2018-07-21T05:01:27.976Z,23.33
2018-07-21T05:04:36.277Z,26.00
2018-07-21T05:07:45.330Z,24.67
2018-07-21T05:10:53.588Z,25.00
2018-07-21T05:14:01.911Z,23.00
2018-07-21T05:17:11.210Z,25.00
2018-07-21T05:20:19.191Z,26.33
2018-07-21T05:23:26.716Z,27.00
2018-07-21T05:26:37.748Z,25.00
2018-07-21T05:29:44.267Z,25.00
2018-07-21T05:32:53.487Z,25.67
2018-07-21T05:36:01.584Z,23.00
2018-07-21T05:39:08.684Z,21.00
2018-07-21T05:42:16.824Z,21.33
2018-07-21T05:45:25.769Z,21.67
2018-07-21T05:48:33.356Z,24.67
2018-07-21T05:51:42.449Z,24.67
2018-07-21T05:54:50.628Z,26.67
2018-07-21T05:57:58.701Z,26.00
2018-07-21T06:01:07.861Z,26.33
2018-07-21T06:04:18.625Z,25.33
2018-07-21T06:07:26.296Z,26.00
2018-07-21T06:10:34.517Z,26.33
2018-07-21T06:13:45.417Z,27.00
2018-07-21T06:16:54.214Z,27.33
2018-07-21T06:20:04.586Z,24.00
2018-07-21T06:23:17.912Z,26.00
2018-07-21T06:26:25.410Z,24.67
2018-07-21T06:29:33.894Z,23.00
2018-07-21T06:32:44.200Z,21.33
2018-07-21T06:38:17.200Z,18.33
2018-07-21T06:41:27.843Z,19.00
2018-07-21T06:44:37.782Z,18.00
2018-07-21T06:47:47.000Z,19.00
2018-07-21T06:50:55.425Z,20.00
2018-07-21T06:54:04.864Z,20.00
2018-07-21T06:57:13.260Z,21.33
2018-07-21T07:00:24.287Z,25.67
2018-07-21T07:03:32.588Z,24.67
2018-07-21T07:06:40.614Z,27.67
2018-07-21T07:09:49.066Z,26.00
2018-07-21T07:12:57.095Z,29.00
2018-07-21T07:22:54.474Z,25.67
2018-07-21T07:26:05.732Z,25.67
2018-07-21T07:29:13.907Z,27.00
2018-07-21T07:32:30.201Z,26.67
2018-07-21T07:35:40.264Z,26.33
2018-07-21T07:38:51.327Z,26.67
2018-07-21T07:42:00.503Z,27.00
2018-07-21T07:45:08.690Z,26.67
2018-07-21T07:48:21.282Z,31.67
2018-07-21T07:51:29.962Z,25.33
2018-07-21T07:54:38.307Z,25.33
2018-07-21T07:57:46.079Z,25.33
2018-07-21T08:00:54.454Z,29.00
2018-07-21T08:04:10.344Z,28.00
2018-07-21T08:07:17.911Z,29.00
2018-07-21T08:10:26.266Z,26.00
2018-07-21T08:13:35.455Z,27.00
2018-07-21T08:16:43.695Z,24.67
2018-07-21T08:19:53.924Z,16.00
2018-07-21T08:23:05.319Z,13.33
2018-07-21T08:26:14.755Z,13.00
2018-07-21T08:29:27.288Z,15.67
2018-07-21T08:32:36.660Z,12.00
2018-07-21T08:35:46.899Z,15.33
2018-07-21T08:38:56.352Z,14.00
2018-07-21T08:42:05.484Z,12.67
2018-07-21T08:45:14.846Z,16.00
2018-07-21T08:48:25.287Z,14.33
2018-07-21T08:51:34.343Z,14.67
2018-07-21T08:54:45.655Z,18.00
2018-07-21T08:57:57.661Z,16.33
2018-07-21T09:01:07.278Z,16.00
2018-07-21T09:04:17.501Z,16.00
2018-07-21T09:07:29.080Z,17.33
2018-07-21T09:10:39.193Z,14.67
2018-07-21T09:13:51.984Z,16.00
2018-07-21T09:17:04.511Z,14.00
2018-07-21T09:20:18.688Z,13.00
2018-07-21T09:23:29.736Z,11.67
2018-07-21T09:26:41.571Z,11.33
2018-07-21T09:29:50.473Z,11.00
2018-07-21T09:33:00.758Z,10.00
2018-07-21T09:36:11.175Z,12.00
2018-07-21T09:39:20.421Z,11.67
2018-07-21T09:42:29.682Z,13.00
2018-07-21T09:45:39.771Z,15.33
2018-07-21T09:48:53.769Z,15.33
2018-07-21T09:52:03.187Z,17.00
2018-07-21T09:55:16.520Z,19.33
2018-07-21T09:58:25.273Z,17.33
2018-07-21T10:01:36.642Z,18.33
2018-07-21T10:04:46.837Z,18.00
2018-07-21T10:08:28.046Z,18.00
2018-07-21T10:11:39.059Z,20.67
2018-07-21T10:14:47.275Z,21.67
2018-07-21T10:17:58.584Z,21.67
2018-07-21T10:21:07.674Z,21.33
2018-07-21T10:24:21.809Z,21.33
2018-07-21T10:27:31.735Z,22.67
2018-07-21T10:30:39.416Z,26.33
2018-07-21T10:33:50.447Z,23.67
2018-07-21T10:37:00.357Z,26.00
2018-07-21T10:40:09.642Z,25.00
2018-07-21T10:43:18.646Z,26.33
2018-07-21T10:46:32.736Z,25.33
2018-07-21T10:49:42.285Z,28.67
2018-07-21T10:52:50.399Z,26.33
2018-07-21T10:55:59.541Z,26.33
2018-07-21T10:59:08.444Z,26.00
2018-07-21T11:02:20.825Z,38.33
2018-07-21T11:05:33.254Z,37.00
2018-07-21T11:12:01.397Z,34.00
2018-07-21T11:15:14.791Z,32.33
2018-07-21T11:18:25.474Z,31.67
2018-07-21T11:21:37.244Z,30.67
2018-07-21T11:24:51.706Z,35.67
2018-07-21T11:28:09.429Z,33.33
2018-07-21T11:31:18.031Z,35.67
2018-07-21T11:34:41.355Z,34.33
2018-07-21T11:37:49.696Z,35.00
2018-07-21T11:40:57.665Z,37.67
2018-07-21T11:44:06.507Z,37.67
2018-07-21T11:47:15.447Z,38.67
2018-07-21T11:50:24.329Z,39.00
2018-07-21T11:53:31.513Z,38.00
2018-07-21T11:56:39.722Z,37.67
2018-07-21T11:59:50.128Z,38.33
2018-07-21T12:03:00.388Z,41.33
2018-07-21T12:06:10.214Z,37.67
2018-07-21T12:09:19.263Z,39.00
2018-07-21T12:12:26.613Z,37.00
2018-07-21T12:15:35.797Z,40.33
2018-07-21T12:18:49.850Z,37.33
2018-07-21T12:22:04.494Z,34.33
2018-07-21T12:25:11.767Z,39.00
2018-07-21T12:28:22.302Z,35.00
2018-07-21T12:31:37.282Z,36.00
2018-07-21T12:34:47.150Z,36.33
2018-07-21T12:37:59.347Z,35.33
2018-07-21T12:41:08.420Z,32.33
2018-07-21T12:44:16.545Z,36.33
2018-07-21T12:47:25.036Z,36.67
2018-07-21T12:50:34.734Z,34.33
2018-07-21T12:53:46.775Z,36.25
2018-07-21T12:56:56.761Z,38.33
2018-07-21T13:00:06.231Z,39.67
2018-07-21T13:03:15.420Z,38.00
2018-07-21T13:06:25.159Z,39.00
2018-07-21T13:09:35.341Z,37.00
2018-07-21T13:12:45.999Z,38.00
2018-07-21T13:15:57.197Z,35.00
2018-07-21T13:19:06.408Z,38.00
2018-07-21T13:22:17.749Z,37.50
2018-07-21T13:25:26.948Z,36.33
2018-07-21T13:28:45.183Z,38.00
2018-07-21T13:31:53.297Z,38.00
2018-07-21T13:35:02.927Z,34.67
2018-07-21T13:38:11.316Z,36.00
2018-07-21T13:41:20.690Z,39.00
2018-07-21T13:44:30.192Z,36.00
2018-07-21T13:47:39.358Z,38.00
2018-07-21T13:50:47.493Z,35.67
2018-07-21T13:53:59.598Z,31.67
2018-07-21T13:57:07.363Z,30.67
2018-07-21T14:00:17.071Z,31.67
2018-07-21T14:03:25.591Z,27.00
2018-07-21T14:06:33.092Z,26.33
2018-07-21T14:09:41.280Z,26.00
2018-07-21T14:12:51.774Z,25.00
2018-07-21T14:16:01.527Z,26.33
2018-07-21T14:19:09.006Z,27.67
2018-07-21T14:22:15.486Z,28.33
2018-07-21T14:25:25.207Z,30.67
2018-07-21T14:28:38.265Z,27.33
2018-07-21T14:31:46.135Z,27.00
2018-07-21T14:34:54.441Z,30.00
2018-07-21T14:38:06.108Z,27.33
2018-07-21T14:41:16.979Z,24.33
2018-07-21T14:44:30.199Z,28.00
2018-07-21T14:47:41.400Z,28.33
2018-07-21T14:50:52.558Z,30.00
2018-07-21T14:54:02.590Z,29.00
2018-07-21T14:57:10.393Z,28.33
2018-07-21T15:00:17.559Z,31.67
2018-07-21T15:03:26.874Z,27.67
2018-07-21T15:06:35.203Z,29.67
2018-07-21T15:09:48.478Z,30.00
2018-07-21T15:12:56.639Z,31.67
2018-07-21T15:16:05.444Z,30.00
2018-07-21T15:19:15.209Z,31.00
2018-07-21T15:22:26.389Z,31.67
2018-07-21T15:25:34.694Z,34.00
2018-07-21T15:28:45.404Z,30.00
2018-07-21T15:32:09.542Z,31.00
2018-07-21T15:35:22.301Z,33.33
2018-07-21T15:38:35.596Z,28.67
2018-07-21T15:41:47.254Z,33.67
2018-07-21T15:44:59.747Z,35.67
2018-07-21T15:48:14.394Z,35.00
2018-07-21T15:51:23.855Z,35.67
2018-07-21T15:54:32.241Z,35.67
2018-07-21T15:57:40.449Z,35.00
2018-07-21T16:00:53.679Z,36.00
2018-07-21T16:04:07.781Z,34.00
2018-07-21T16:07:15.653Z,36.00
2018-07-21T16:10:23.457Z,38.67
2018-07-21T16:13:32.302Z,35.00
2018-07-21T16:16:39.665Z,34.33
2018-07-21T16:19:48.774Z,35.67
2018-07-21T16:22:56.251Z,38.00
2018-07-21T16:26:05.238Z,38.00
2018-07-21T16:29:16.289Z,38.33
2018-07-21T16:32:25.334Z,35.67
2018-07-21T16:35:33.424Z,36.67
2018-07-21T16:38:43.223Z,35.00
2018-07-21T16:41:53.861Z,39.00
2018-07-21T16:45:04.267Z,37.67
2018-07-21T16:48:13.317Z,38.00
2018-07-21T16:51:21.280Z,36.67
2018-07-21T16:54:34.268Z,37.33
2018-07-21T16:57:44.509Z,38.00
2018-07-21T17:00:57.416Z,39.67
2018-07-21T17:04:05.925Z,37.67
2018-07-21T17:07:14.999Z,37.67
2018-07-21T17:10:23.988Z,37.67
2018-07-21T17:13:37.145Z,36.67
2018-07-21T17:16:50.209Z,38.25
2018-07-21T17:19:59.947Z,39.33
2018-07-21T17:23:10.356Z,38.00
2018-07-21T17:26:24.235Z,35.67
2018-07-21T17:29:36.374Z,36.00
2018-07-21T17:32:46.746Z,37.67
2018-07-21T17:35:54.073Z,37.33
2018-07-21T17:39:02.203Z,35.00
2018-07-21T17:42:12.638Z,37.00
2018-07-21T17:45:23.736Z,35.67
2018-07-21T17:48:33.816Z,35.00
2018-07-21T17:51:42.598Z,38.00
2018-07-21T17:54:51.428Z,37.00
2018-07-21T17:58:00.661Z,37.67
2018-07-21T18:01:09.972Z,31.67
2018-07-21T18:04:18.055Z,30.67
2018-07-21T18:07:27.188Z,27.67
2018-07-21T18:10:37.588Z,29.67
2018-07-21T18:13:47.914Z,29.67
2018-07-21T18:16:55.776Z,29.00
2018-07-21T18:20:04.821Z,31.33
2018-07-21T18:23:14.448Z,36.00
2018-07-21T18:26:24.252Z,33.33
2018-07-21T18:29:32.577Z,34.00
2018-07-21T18:32:41.898Z,32.00
2018-07-21T18:35:49.999Z,34.00
2018-07-21T18:39:01.179Z,33.67
2018-07-21T18:42:10.203Z,34.00
2018-07-21T18:45:18.279Z,33.33
2018-07-21T18:48:26.440Z,35.00
2018-07-21T18:51:35.463Z,36.67
2018-07-21T18:54:44.867Z,37.00
2018-07-21T18:57:58.114Z,35.00
2018-07-21T19:01:08.074Z,37.67
2018-07-21T19:04:23.544Z,36.67
2018-07-21T19:07:33.647Z,37.00
2018-07-21T19:10:43.376Z,35.00
2018-07-21T19:13:51.850Z,38.00
2018-07-21T19:17:05.771Z,35.33
2018-07-21T19:20:26.160Z,37.33
2018-07-21T19:23:42.795Z,34.33
2018-07-21T19:26:58.384Z,36.00
2018-07-21T19:30:06.701Z,37.00
2018-07-21T19:33:16.906Z,35.00
2018-07-21T19:36:28.043Z,39.67
2018-07-21T19:39:38.296Z,34.00
2018-07-21T19:42:47.222Z,36.00
2018-07-21T19:45:59.576Z,38.67
2018-07-21T19:49:09.909Z,33.67
2018-07-21T19:52:21.049Z,37.00
2018-07-21T19:55:30.651Z,36.33
2018-07-21T19:58:39.881Z,37.00
2018-07-21T20:01:56.583Z,36.33
2018-07-21T20:05:05.636Z,34.67
2018-07-21T20:08:15.276Z,37.00
2018-07-21T20:11:26.448Z,32.00
2018-07-21T20:14:36.593Z,31.00
2018-07-21T20:17:46.942Z,34.67
2018-07-21T20:21:03.682Z,34.33
2018-07-21T20:24:13.705Z,36.33
2018-07-21T20:27:28.440Z,37.33
2018-07-21T20:30:38.616Z,47.00
2018-07-21T20:33:46.951Z,47.00
2018-07-21T20:36:57.418Z,47.67
2018-07-21T20:40:08.931Z,44.33
2018-07-21T20:43:21.325Z,44.00
2018-07-21T20:46:33.489Z,41.33
2018-07-21T20:49:44.401Z,40.00
2018-07-21T20:52:54.375Z,46.33
2018-07-21T20:56:03.109Z,42.00
2018-07-21T20:59:12.994Z,48.33
2018-07-21T21:02:22.481Z,40.67
2018-07-21T21:05:35.046Z,47.33
2018-07-21T21:12:07.300Z,48.00
2018-07-21T21:15:17.121Z,44.67
2018-07-21T21:18:28.225Z,39.00
2018-07-21T21:21:37.655Z,39.00
2018-07-21T21:24:46.051Z,37.00
2018-07-21T21:27:58.069Z,37.33
2018-07-21T21:31:05.465Z,37.00
2018-07-21T21:34:14.938Z,38.00
2018-07-21T21:37:24.340Z,38.33
2018-07-21T21:40:33.261Z,37.67
2018-07-21T21:43:41.686Z,37.67
2018-07-21T21:46:51.675Z,40.67
2018-07-21T21:50:02.218Z,40.00
2018-07-21T21:53:11.712Z,39.00
2018-07-21T21:56:20.248Z,37.67
2018-07-21T21:59:31.552Z,38.00
2018-07-21T22:02:43.292Z,38.00
2018-07-21T22:05:58.446Z,37.00
2018-07-21T22:09:10.530Z,35.33
2018-07-21T22:12:19.593Z,35.00
2018-07-21T22:15:36.144Z,36.33
2018-07-21T22:18:48.202Z,36.33
2018-07-21T22:21:58.499Z,34.00
2018-07-21T22:25:08.347Z,34.33
2018-07-21T22:28:18.651Z,33.00
2018-07-21T22:31:28.977Z,38.00
2018-07-21T22:34:39.221Z,34.33
2018-07-21T22:37:52.189Z,32.33
2018-07-21T22:44:34.800Z,30.33
2018-07-21T22:47:45.919Z,30.00
2018-07-21T22:50:56.177Z,33.67
2018-07-21T22:54:06.905Z,33.33
2018-07-21T22:57:15.548Z,28.00
2018-07-21T23:00:26.018Z,22.67
2018-07-21T23:03:35.327Z,26.00
2018-07-21T23:06:46.488Z,24.00
2018-07-21T23:09:57.055Z,23.00
2018-07-21T23:13:06.195Z,24.00
2018-07-21T23:16:15.296Z,22.00
2018-07-21T23:19:23.500Z,25.33
2018-07-21T23:22:31.613Z,28.67
2018-07-21T23:25:40.032Z,31.67
2018-07-21T23:28:49.375Z,22.00
2018-07-21T23:31:56.637Z,24.67
2018-07-21T23:35:04.923Z,25.00
2018-07-21T23:38:14.252Z,23.67
2018-07-21T23:41:22.328Z,25.00
2018-07-21T23:44:30.593Z,25.67
2018-07-21T23:47:39.968Z,23.33
2018-07-21T23:50:48.374Z,23.33
2018-07-21T23:53:55.724Z,26.67
2018-07-21T23:57:05.989Z,26.00
